Time;durP1;ratioP1;P1;durP2;ratioP2;P2;SDS_P1;SDS_P2;PMS_P1;PMS_P2;Temp;Humidity;BMP_temperature;BMP_pressure;BME280_temperature;BME280_humidity;BME280_pressure;Samples;Min_cycle;Max_cycle;Signal;HPM_P1;HPM_P2
2023/05/31 00:00:24;;;;;;;8.88;3.75;;;;;;;;;;6246965;23;20020;-84
2023/05/31 00:02:51;;;;;;;6.85;3.40;;;;;;;;;;6245236;23;20039;-85
2023/05/31 00:05:18;;;;;;;8.57;3.85;;;;;;;;;;6246021;23;20463;-85
2023/05/31 00:07:46;;;;;;;8.85;3.45;;;;;;;;;;6245840;23;20094;-85
2023/05/31 00:10:13;;;;;;;7.85;3.72;;;;;;;;;;6248060;23;20012;-85
2023/05/31 00:12:40;;;;;;;5.60;3.60;;;;;;;;;;6245461;23;20027;-85
2023/05/31 00:15:08;;;;;;;8.77;3.83;;;;;;;;;;6245293;23;20047;-85
2023/05/31 00:17:35;;;;;;;6.53;3.78;;;;;;;;;;6245384;23;20046;-84
2023/05/31 00:20:05;;;;;;;8.43;4.30;;;;;;;;;;6246030;23;20016;-85
2023/05/31 00:22:33;;;;;;;12.35;4.10;;;;;;;;;;6246744;23;20086;-85
2023/05/31 00:25:00;;;;;;;11.02;3.83;;;;;;;;;;6245353;23;20016;-85
2023/05/31 00:27:27;;;;;;;11.13;3.80;;;;;;;;;;6245371;23;20020;-85
2023/05/31 00:29:55;;;;;;;8.07;4.22;;;;;;;;;;6245154;23;20514;-86
2023/05/31 00:32:22;;;;;;;10.45;4.07;;;;;;;;;;6245280;23;20071;-85
2023/05/31 00:34:49;;;;;;;9.82;4.07;;;;;;;;;;6245086;23;20020;-84
2023/05/31 00:37:17;;;;;;;7.65;3.72;;;;;;;;;;6245527;23;20016;-85
2023/05/31 00:39:44;;;;;;;6.97;4.22;;;;;;;;;;6245116;23;20020;-85
2023/05/31 00:42:12;;;;;;;9.43;3.90;;;;;;;;;;6245056;23;20020;-85
2023/05/31 00:44:39;;;;;;;8.82;4.13;;;;;;;;;;6245040;23;20020;-85
2023/05/31 00:47:06;;;;;;;6.63;3.75;;;;;;;;;;6244989;23;20042;-85
2023/05/31 00:49:34;;;;;;;9.48;4.05;;;;;;;;;;6245308;23;20024;-84
2023/05/31 00:52:02;;;;;;;12.20;3.78;;;;;;;;;;6245002;23;20066;-85
2023/05/31 00:54:29;;;;;;;10.90;4.28;;;;;;;;;;6244942;23;20027;-85
2023/05/31 00:56:57;;;;;;;11.48;4.00;;;;;;;;;;6245004;23;20020;-85
2023/05/31 00:59:24;;;;;;;12.35;4.28;;;;;;;;;;6245846;23;20024;-84
2023/05/31 01:01:52;;;;;;;11.68;4.50;;;;;;;;;;6245012;23;20085;-85
2023/05/31 01:04:20;;;;;;;10.30;3.80;;;;;;;;;;6244861;23;20532;-85
2023/05/31 01:06:49;;;;;;;10.00;4.03;;;;;;;;;;6244809;23;20016;-85
2023/05/31 01:09:17;;;;;;;7.88;3.95;;;;;;;;;;6246253;23;20060;-85
2023/05/31 01:11:51;;;;;;;7.50;4.00;;;;;;;;;;6244906;23;20020;-85
2023/05/31 01:14:41;;;;;;;8.52;4.00;;;;;;;;;;6246415;22;20023;-85
2023/05/31 01:17:29;;;;;;;10.35;3.70;;;;;;;;;;6177349;23;20027;-85
2023/05/31 01:20:01;;;;;;;8.68;4.05;;;;;;;;;;6247008;23;20099;-84
2023/05/31 01:22:37;;;;;;;8.70;4.22;;;;;;;;;;6245046;23;20027;-85
2023/05/31 01:25:13;;;;;;;11.23;4.50;;;;;;;;;;6244843;23;20024;-85
2023/05/31 01:27:42;;;;;;;12.00;4.15;;;;;;;;;;6244661;23;20511;-84
2023/05/31 01:30:10;;;;;;;9.38;3.35;;;;;;;;;;6244767;23;20020;-85
2023/05/31 01:32:38;;;;;;;7.40;4.25;;;;;;;;;;6245028;23;20016;-85
2023/05/31 01:35:06;;;;;;;8.43;4.15;;;;;;;;;;6244574;23;20023;-85
2023/05/31 01:37:33;;;;;;;13.23;4.50;;;;;;;;;;6245291;23;20078;-85
2023/05/31 01:40:04;;;;;;;7.97;3.90;;;;;;;;;;6245178;23;20046;-85
2023/05/31 01:42:32;;;;;;;10.82;4.47;;;;;;;;;;6245126;23;20024;-85
2023/05/31 01:45:00;;;;;;;8.60;4.00;;;;;;;;;;6244588;23;20016;-85
2023/05/31 01:47:27;;;;;;;9.00;4.13;;;;;;;;;;6244519;23;20046;-84
2023/05/31 01:49:55;;;;;;;10.00;4.20;;;;;;;;;;6244771;23;20027;-85
2023/05/31 01:52:23;;;;;;;10.50;4.88;;;;;;;;;;6244703;23;20020;-85
2023/05/31 01:54:51;;;;;;;8.38;4.20;;;;;;;;;;6244502;23;20026;-85
2023/05/31 01:57:20;;;;;;;11.18;4.82;;;;;;;;;;6244979;23;20075;-85
2023/05/31 01:59:47;;;;;;;9.02;4.35;;;;;;;;;;6244623;23;20086;-84
2023/05/31 02:02:14;;;;;;;8.55;4.22;;;;;;;;;;6244510;23;20346;-85
2023/05/31 02:04:41;;;;;;;8.20;4.20;;;;;;;;;;6244117;23;20023;-85
2023/05/31 02:07:11;;;;;;;8.40;3.80;;;;;;;;;;6244093;23;20089;-85
2023/05/31 02:09:38;;;;;;;9.05;4.50;;;;;;;;;;6244098;23;20020;-85
2023/05/31 02:12:06;;;;;;;10.23;5.00;;;;;;;;;;6244358;23;20453;-85
2023/05/31 02:14:33;;;;;;;12.55;5.32;;;;;;;;;;6244007;23;20078;-84
2023/05/31 02:17:01;;;;;;;17.52;5.13;;;;;;;;;;6245520;23;20017;-85
2023/05/31 02:19:28;;;;;;;6.90;4.53;;;;;;;;;;6243912;23;20090;-85
2023/05/31 02:21:56;;;;;;;7.03;4.45;;;;;;;;;;6244104;23;20017;-85
2023/05/31 02:24:28;;;;;;;11.18;4.60;;;;;;;;;;6244036;23;20020;-84
2023/05/31 02:26:55;;;;;;;7.18;4.25;;;;;;;;;;6248308;23;20016;-84
2023/05/31 02:29:22;;;;;;;9.05;4.88;;;;;;;;;;6246653;23;20023;-85
2023/05/31 02:31:50;;;;;;;10.07;4.72;;;;;;;;;;6246205;23;20028;-85
2023/05/31 02:34:18;;;;;;;10.65;4.57;;;;;;;;;;6246368;23;20016;-84
2023/05/31 02:36:45;;;;;;;10.80;4.68;;;;;;;;;;6246446;23;20445;-85
2023/05/31 02:39:12;;;;;;;11.00;4.60;;;;;;;;;;6246310;23;20526;-85
2023/05/31 02:41:40;;;;;;;11.90;5.60;;;;;;;;;;6247194;23;20024;-84
2023/05/31 02:44:07;;;;;;;11.80;5.10;;;;;;;;;;6246544;23;20012;-85
2023/05/31 02:46:35;;;;;;;13.38;5.30;;;;;;;;;;6246132;23;20070;-85
2023/05/31 02:49:03;;;;;;;9.13;4.97;;;;;;;;;;6245644;23;20023;-85
2023/05/31 02:51:30;;;;;;;11.25;5.07;;;;;;;;;;6246467;23;20067;-84
2023/05/31 02:53:58;;;;;;;8.95;4.85;;;;;;;;;;6246017;23;20023;-85
2023/05/31 02:56:26;;;;;;;8.27;4.88;;;;;;;;;;6245853;23;20386;-85
2023/05/31 02:58:53;;;;;;;8.80;4.63;;;;;;;;;;6245634;23;20067;-85
2023/05/31 03:01:20;;;;;;;12.77;4.50;;;;;;;;;;6245709;23;20024;-84
2023/05/31 03:03:48;;;;;;;9.20;5.20;;;;;;;;;;6245745;23;20020;-85
2023/05/31 03:06:19;;;;;;;14.75;5.88;;;;;;;;;;6245550;23;20027;-85
2023/05/31 03:08:46;;;;;;;8.95;5.35;;;;;;;;;;6245860;23;20059;-85
2023/05/31 03:11:14;;;;;;;12.63;5.07;;;;;;;;;;6246065;23;20373;-85
2023/05/31 03:13:41;;;;;;;9.65;4.65;;;;;;;;;;6245832;23;20020;-85
2023/05/31 03:16:08;;;;;;;10.15;4.85;;;;;;;;;;6245492;23;20030;-84
2023/05/31 03:18:35;;;;;;;10.85;5.05;;;;;;;;;;6245759;23;20398;-84
2023/05/31 03:21:04;;;;;;;9.98;4.65;;;;;;;;;;6246202;23;20054;-84
2023/05/31 03:23:32;;;;;;;14.43;5.25;;;;;;;;;;6245898;23;20094;-84
2023/05/31 03:25:59;;;;;;;13.05;5.53;;;;;;;;;;6245656;23;20449;-84
2023/05/31 03:28:26;;;;;;;13.55;5.10;;;;;;;;;;6245407;23;20027;-84
2023/05/31 03:30:53;;;;;;;6.97;4.90;;;;;;;;;;6245525;23;20291;-84
2023/05/31 03:33:23;;;;;;;11.95;5.78;;;;;;;;;;6246770;23;20031;-84
2023/05/31 03:35:50;;;;;;;11.20;4.95;;;;;;;;;;6245431;23;20024;-83
2023/05/31 03:38:18;;;;;;;12.20;5.50;;;;;;;;;;6244828;23;20051;-83
2023/05/31 03:40:45;;;;;;;10.48;5.03;;;;;;;;;;6245418;23;20396;-84
2023/05/31 03:43:12;;;;;;;15.48;5.75;;;;;;;;;;6245147;23;20020;-84
2023/05/31 03:45:39;;;;;;;12.13;5.53;;;;;;;;;;6244892;23;20016;-84
2023/05/31 03:48:07;;;;;;;11.02;5.80;;;;;;;;;;6245373;23;20016;-84
2023/05/31 03:50:35;;;;;;;9.35;5.45;;;;;;;;;;6245215;23;20134;-83
2023/05/31 03:53:02;;;;;;;9.35;5.45;;;;;;;;;;6245662;23;20093;-83
2023/05/31 03:55:30;;;;;;;10.82;5.32;;;;;;;;;;6245436;23;20520;-84
2023/05/31 03:57:57;;;;;;;14.05;5.40;;;;;;;;;;6245504;23;20345;-83
2023/05/31 04:00:25;;;;;;;10.38;5.13;;;;;;;;;;6245753;23;20020;-83
2023/05/31 04:02:52;;;;;;;12.70;6.80;;;;;;;;;;6245338;23;20024;-84
2023/05/31 04:05:31;;;;;;;17.02;8.43;;;;;;;;;;6245188;23;20020;-84
2023/05/31 04:07:59;;;;;;;18.05;8.80;;;;;;;;;;6245176;23;20027;-84
2023/05/31 04:10:26;;;;;;;16.00;8.15;;;;;;;;;;6244979;23;20099;-84
2023/05/31 04:12:54;;;;;;;13.45;6.80;;;;;;;;;;6245535;23;20020;-84
2023/05/31 04:15:21;;;;;;;20.50;5.70;;;;;;;;;;6245048;23;20016;-84
2023/05/31 04:17:48;;;;;;;18.42;5.38;;;;;;;;;;6245075;23;20016;-84
2023/05/31 04:20:16;;;;;;;6.97;4.78;;;;;;;;;;6245565;23;20080;-84
2023/05/31 04:22:43;;;;;;;12.27;5.18;;;;;;;;;;6246406;23;20012;-83
2023/05/31 04:25:12;;;;;;;10.02;4.82;;;;;;;;;;6244803;23;20461;-84
2023/05/31 04:27:40;;;;;;;13.05;5.07;;;;;;;;;;6246318;22;20016;-84
2023/05/31 04:30:08;;;;;;;15.07;4.38;;;;;;;;;;6244452;23;20393;-84
2023/05/31 04:32:35;;;;;;;14.43;4.97;;;;;;;;;;6244820;23;20016;-84
2023/05/31 04:35:05;;;;;;;15.13;5.07;;;;;;;;;;6244914;23;20074;-85
2023/05/31 04:37:33;;;;;;;9.15;5.30;;;;;;;;;;6244789;23;20062;-84
2023/05/31 04:40:05;;;;;;;9.10;4.90;;;;;;;;;;6246689;23;20077;-84
2023/05/31 04:42:32;;;;;;;11.13;4.82;;;;;;;;;;6244895;23;20091;-84
2023/05/31 04:45:01;;;;;;;10.10;4.32;;;;;;;;;;6245215;23;20020;-84
2023/05/31 04:47:28;;;;;;;16.80;9.63;;;;;;;;;;6244876;23;20070;-84
2023/05/31 04:49:59;;;;;;;25.02;16.40;;;;;;;;;;6244586;23;20190;-84
2023/05/31 04:52:31;;;;;;;33.15;17.38;;;;;;;;;;6244874;23;20475;-84
2023/05/31 04:54:59;;;;;;;18.40;11.20;;;;;;;;;;6244593;23;20011;-84
2023/05/31 04:57:27;;;;;;;46.10;26.77;;;;;;;;;;6245348;23;20095;-84
2023/05/31 04:59:58;;;;;;;26.40;17.48;;;;;;;;;;6245363;23;20035;-84
2023/05/31 05:02:26;;;;;;;28.27;14.73;;;;;;;;;;6245122;23;20020;-84
2023/05/31 05:04:54;;;;;;;52.88;31.02;;;;;;;;;;6244505;23;20024;-83
2023/05/31 05:07:21;;;;;;;15.70;8.85;;;;;;;;;;6245013;23;20020;-84
2023/05/31 05:09:49;;;;;;;29.15;17.35;;;;;;;;;;6245874;23;20020;-84
2023/05/31 05:12:16;;;;;;;14.68;10.77;;;;;;;;;;6244808;23;20020;-84
2023/05/31 05:14:43;;;;;;;11.55;5.13;;;;;;;;;;6244587;23;20405;-84
2023/05/31 05:17:11;;;;;;;14.20;5.25;;;;;;;;;;6246534;23;20054;-84
2023/05/31 05:19:38;;;;;;;12.57;5.65;;;;;;;;;;6244709;23;20020;-85
2023/05/31 05:22:06;;;;;;;13.25;4.10;;;;;;;;;;6244628;23;20024;-85
2023/05/31 05:24:33;;;;;;;8.18;4.72;;;;;;;;;;6244609;23;20024;-85
2023/05/31 05:27:00;;;;;;;16.63;6.30;;;;;;;;;;6244698;23;20027;-85
2023/05/31 05:29:28;;;;;;;24.60;5.43;;;;;;;;;;6245251;23;20046;-85
2023/05/31 05:31:55;;;;;;;16.42;4.90;;;;;;;;;;6245986;23;20016;-85
2023/05/31 05:34:23;;;;;;;22.10;6.57;;;;;;;;;;6242684;23;20476;-85
2023/05/31 05:36:52;;;;;;;26.25;7.18;;;;;;;;;;6244707;23;20015;-85
2023/05/31 05:39:21;;;;;;;16.77;6.18;;;;;;;;;;6244733;23;20031;-84
2023/05/31 05:41:55;;;;;;;17.95;5.65;;;;;;;;;;6244914;23;20016;-85
2023/05/31 05:44:25;;;;;;;25.63;5.47;;;;;;;;;;6244014;23;20028;-85
2023/05/31 05:46:53;;;;;;;16.85;5.72;;;;;;;;;;6244069;23;20031;-85
2023/05/31 05:49:20;;;;;;;21.38;5.70;;;;;;;;;;6245780;23;20512;-85
2023/05/31 05:51:47;;;;;;;21.08;5.28;;;;;;;;;;6244026;23;20012;-85
2023/05/31 05:54:15;;;;;;;20.88;5.40;;;;;;;;;;6244771;23;20027;-85
2023/05/31 05:56:43;;;;;;;18.13;4.85;;;;;;;;;;6243716;23;20035;-85
2023/05/31 05:59:11;;;;;;;14.35;4.32;;;;;;;;;;6243974;23;20035;-84
2023/05/31 06:01:38;;;;;;;14.82;4.20;;;;;;;;;;6243869;23;20095;-84
2023/05/31 06:04:05;;;;;;;15.35;4.60;;;;;;;;;;6244069;23;20023;-84
2023/05/31 06:06:33;;;;;;;11.93;3.75;;;;;;;;;;6245526;23;20024;-85
2023/05/31 06:09:00;;;;;;;23.33;4.63;;;;;;;;;;6244026;23;20020;-85
2023/05/31 06:11:27;;;;;;;31.75;5.35;;;;;;;;;;6245833;23;20028;-85
2023/05/31 06:13:57;;;;;;;29.35;5.20;;;;;;;;;;6244689;23;20020;-85
2023/05/31 06:16:25;;;;;;;34.75;5.60;;;;;;;;;;6244190;23;20488;-84
2023/05/31 06:18:53;;;;;;;28.23;4.45;;;;;;;;;;6243825;23;20020;-84
2023/05/31 06:21:20;;;;;;;41.00;5.90;;;;;;;;;;6243947;23;20307;-85
2023/05/31 06:23:50;;;;;;;31.00;5.40;;;;;;;;;;6244211;23;20047;-85
2023/05/31 06:26:22;;;;;;;19.27;4.65;;;;;;;;;;6245567;23;20082;-85
2023/05/31 06:28:50;;;;;;;9.60;3.50;;;;;;;;;;6244079;23;20024;-84
2023/05/31 06:31:18;;;;;;;10.98;3.53;;;;;;;;;;6243982;23;20038;-86
2023/05/31 06:33:48;;;;;;;14.75;3.55;;;;;;;;;;6244452;23;20021;-85
2023/05/31 06:36:16;;;;;;;10.73;3.00;;;;;;;;;;6244615;23;20024;-85
2023/05/31 06:38:43;;;;;;;15.55;3.50;;;;;;;;;;6244819;23;20020;-85
2023/05/31 06:41:11;;;;;;;7.45;2.78;;;;;;;;;;6246550;23;20020;-85
2023/05/31 06:43:38;;;;;;;12.77;3.35;;;;;;;;;;6246968;23;20314;-85
2023/05/31 06:46:07;;;;;;;6.72;2.90;;;;;;;;;;6244240;23;20020;-85
2023/05/31 06:48:34;;;;;;;4.88;2.10;;;;;;;;;;6244030;23;20019;-84
2023/05/31 06:51:02;;;;;;;4.60;2.50;;;;;;;;;;6244155;23;20012;-85
2023/05/31 06:53:29;;;;;;;6.00;2.67;;;;;;;;;;6244792;23;20024;-85
2023/05/31 06:55:56;;;;;;;5.38;2.75;;;;;;;;;;6245428;23;20429;-85
2023/05/31 06:58:24;;;;;;;6.78;2.53;;;;;;;;;;6244686;23;20024;-85
2023/05/31 07:32:34;;;;;;;6.93;2.42;;;;;;;;;;5131763;27;20428;-87
2023/05/31 07:35:03;;;;;;;4.78;2.50;;;;;;;;;;5129127;28;20049;-88
2023/05/31 07:37:31;;;;;;;3.30;2.10;;;;;;;;;;5131870;27;20121;-88
2023/05/31 07:39:59;;;;;;;6.88;2.10;;;;;;;;;;5130587;28;20055;-86
2023/05/31 07:42:26;;;;;;;3.53;2.13;;;;;;;;;;5130355;28;20062;-87
2023/05/31 07:44:54;;;;;;;6.18;2.40;;;;;;;;;;5130824;27;20120;-87
2023/05/31 07:47:21;;;;;;;7.35;2.15;;;;;;;;;;5130523;28;20097;-87
2023/05/31 07:49:51;;;;;;;5.20;2.15;;;;;;;;;;5130453;28;20043;-87
2023/05/31 07:52:22;;;;;;;5.47;2.30;;;;;;;;;;5130430;28;20043;-86
2023/05/31 07:54:49;;;;;;;3.15;2.45;;;;;;;;;;5131207;28;20047;-91
2023/05/31 07:57:17;;;;;;;5.20;2.05;;;;;;;;;;5132202;27;20058;-85
2023/05/31 07:59:45;;;;;;;8.10;2.42;;;;;;;;;;5131079;28;20043;-86
2023/05/31 08:02:12;;;;;;;5.03;2.47;;;;;;;;;;5132444;27;20050;-86
2023/05/31 08:04:39;;;;;;;7.80;2.58;;;;;;;;;;5131961;27;20051;-86
2023/05/31 08:07:07;;;;;;;9.57;2.97;;;;;;;;;;5130256;28;20043;-88
2023/05/31 08:09:34;;;;;;;4.13;2.13;;;;;;;;;;5130731;28;20069;-90
2023/05/31 08:12:02;;;;;;;5.18;2.00;;;;;;;;;;5131267;28;20437;-87
2023/05/31 08:14:30;;;;;;;4.75;2.60;;;;;;;;;;5139113;28;20466;-85
2023/05/31 08:16:57;;;;;;;7.90;2.00;;;;;;;;;;5132413;27;20054;-88
2023/05/31 08:19:25;;;;;;;9.63;2.28;;;;;;;;;;5129830;28;20058;-86
2023/05/31 08:21:52;;;;;;;11.15;2.63;;;;;;;;;;5130041;28;20090;-89
2023/05/31 08:24:19;;;;;;;9.40;2.60;;;;;;;;;;5130874;28;20101;-86
2023/05/31 08:26:46;;;;;;;9.88;2.90;;;;;;;;;;5130052;28;20052;-92
2023/05/31 08:29:14;;;;;;;4.63;2.30;;;;;;;;;;5129841;28;20039;-88
2023/05/31 08:31:42;;;;;;;6.78;2.38;;;;;;;;;;5126015;28;20059;-86
2023/05/31 08:34:09;;;;;;;4.00;2.30;;;;;;;;;;5116150;28;20384;-85
2023/05/31 08:36:36;;;;;;;16.50;2.70;;;;;;;;;;5116651;28;20048;-88
2023/05/31 08:39:05;;;;;;;12.35;2.30;;;;;;;;;;5115996;28;20052;-86
2023/05/31 08:41:36;;;;;;;6.63;2.03;;;;;;;;;;5116652;28;20112;-92
2023/05/31 08:44:05;;;;;;;12.13;2.22;;;;;;;;;;5116635;28;20109;-87
2023/05/31 08:46:33;;;;;;;3.75;2.05;;;;;;;;;;5115806;28;20051;-89
2023/05/31 08:49:13;;;;;;;4.13;1.65;;;;;;;;;;5115702;28;20051;-88
2023/05/31 08:51:41;;;;;;;4.75;2.08;;;;;;;;;;5115206;28;20047;-85
2023/05/31 08:54:09;;;;;;;5.95;2.00;;;;;;;;;;5115895;28;20463;-92
2023/05/31 08:56:37;;;;;;;6.25;1.92;;;;;;;;;;5115859;28;20071;-89
2023/05/31 08:59:17;;;;;;;4.10;1.40;;;;;;;;;;5116137;28;20078;-88
2023/05/31 09:01:44;;;;;;;4.53;1.83;;;;;;;;;;5116866;28;20051;-92
2023/05/31 09:04:12;;;;;;;3.90;1.40;;;;;;;;;;5116681;28;20280;-91
2023/05/31 09:06:39;;;;;;;8.38;1.70;;;;;;;;;;5115515;28;20048;-87
2023/05/31 09:09:08;;;;;;;4.47;1.40;;;;;;;;;;5115771;28;20052;-89
2023/05/31 09:11:42;;;;;;;5.18;1.52;;;;;;;;;;5115657;28;20053;-89
2023/05/31 09:14:09;;;;;;;10.65;1.75;;;;;;;;;;5115595;28;20082;-90
2023/05/31 09:16:37;;;;;;;5.78;1.48;;;;;;;;;;5116144;28;20048;-89
2023/05/31 09:19:06;;;;;;;2.40;1.23;;;;;;;;;;5116815;28;20455;-90
2023/05/31 09:21:40;;;;;;;2.30;1.27;;;;;;;;;;5098483;28;20545;-88
2023/05/31 09:24:07;;;;;;;3.90;1.35;;;;;;;;;;5116215;28;20555;-86
2023/05/31 09:26:34;;;;;;;3.33;1.20;;;;;;;;;;5114861;28;20048;-84
2023/05/31 09:29:02;;;;;;;2.85;1.40;;;;;;;;;;5117660;28;20529;-85
2023/05/31 09:31:29;;;;;;;3.30;1.33;;;;;;;;;;5121932;28;20532;-87
2023/05/31 09:33:57;;;;;;;15.55;1.70;;;;;;;;;;5116032;28;20051;-86
2023/05/31 09:36:25;;;;;;;4.18;1.45;;;;;;;;;;5114779;28;20054;-86
2023/05/31 09:39:08;;;;;;;4.30;1.40;;;;;;;;;;5114525;28;20043;-83
2023/05/31 09:41:35;;;;;;;5.27;1.37;;;;;;;;;;5114754;28;20133;-86
2023/05/31 09:44:03;;;;;;;2.55;1.42;;;;;;;;;;5114432;28;20047;-89
2023/05/31 09:46:30;;;;;;;4.32;1.35;;;;;;;;;;5114615;28;20052;-91
2023/05/31 09:48:59;;;;;;;2.72;1.20;;;;;;;;;;5114982;28;20054;-87
2023/05/31 09:51:26;;;;;;;5.07;1.25;;;;;;;;;;5114134;28;20059;-87
2023/05/31 09:53:57;;;;;;;6.78;1.25;;;;;;;;;;5114365;28;20479;-87
2023/05/31 09:56:27;;;;;;;5.68;1.00;;;;;;;;;;5114361;28;20043;-89
2023/05/31 09:58:57;;;;;;;4.65;1.20;;;;;;;;;;5114366;28;20043;-88
2023/05/31 10:01:24;;;;;;;8.13;1.92;;;;;;;;;;5114222;28;20052;-92
2023/05/31 10:03:52;;;;;;;2.45;1.20;;;;;;;;;;5114493;28;20073;-89
2023/05/31 10:06:19;;;;;;;4.45;1.15;;;;;;;;;;5114319;28;20056;-86
2023/05/31 10:08:46;;;;;;;4.82;1.17;;;;;;;;;;5114489;28;20047;-88
2023/05/31 10:11:18;;;;;;;4.60;1.50;;;;;;;;;;5114371;28;20043;-91
2023/05/31 10:13:47;;;;;;;4.10;1.50;;;;;;;;;;5114482;28;20544;-87
2023/05/31 10:16:16;;;;;;;7.68;1.30;;;;;;;;;;5114403;28;20048;-89
2023/05/31 10:18:45;;;;;;;3.13;1.10;;;;;;;;;;5114528;28;20074;-85
2023/05/31 10:21:22;;;;;;;6.20;1.30;;;;;;;;;;5114086;28;20072;-90
2023/05/31 10:24:02;;;;;;;1.95;1.25;;;;;;;;;;5114327;28;20058;-91
2023/05/31 10:26:41;;;;;;;5.25;1.40;;;;;;;;;;5113889;28;20183;-89
2023/05/31 10:29:15;;;;;;;4.85;1.33;;;;;;;;;;5114510;28;20055;-88
2023/05/31 10:31:46;;;;;;;3.53;1.30;;;;;;;;;;5113742;28;20597;-88
2023/05/31 10:34:20;;;;;;;2.53;1.35;;;;;;;;;;5113587;28;20407;-91
2023/05/31 10:36:47;;;;;;;1.25;1.15;;;;;;;;;;5114764;28;20051;-86
2023/05/31 10:39:22;;;;;;;4.55;1.30;;;;;;;;;;5114502;28;20050;-88
2023/05/31 10:41:51;;;;;;;2.22;1.27;;;;;;;;;;5113859;28;20105;-87
2023/05/31 10:44:19;;;;;;;6.07;1.40;;;;;;;;;;5114761;28;20464;-87
2023/05/31 10:46:48;;;;;;;1.98;1.35;;;;;;;;;;5127220;28;20032;-88
2023/05/31 10:49:18;;;;;;;2.75;1.20;;;;;;;;;;5118321;28;20111;-90
2023/05/31 10:51:48;;;;;;;4.35;1.40;;;;;;;;;;5114052;28;20079;-88
2023/05/31 10:54:19;;;;;;;4.10;1.50;;;;;;;;;;5114930;28;20097;-92
2023/05/31 10:56:57;;;;;;;4.82;1.20;;;;;;;;;;5113708;28;20100;-88
2023/05/31 10:59:26;;;;;;;1.92;1.13;;;;;;;;;;5113861;28;20048;-86
2023/05/31 11:01:54;;;;;;;3.22;1.23;;;;;;;;;;5113921;28;20096;-87
2023/05/31 11:04:23;;;;;;;4.47;1.13;;;;;;;;;;5113142;28;20047;-89
2023/05/31 11:06:55;;;;;;;13.73;1.83;;;;;;;;;;5113911;28;20414;-89
2023/05/31 11:09:23;;;;;;;3.28;1.45;;;;;;;;;;5113073;28;20044;-88
2023/05/31 11:11:51;;;;;;;10.75;1.50;;;;;;;;;;5114038;28;20048;-88
2023/05/31 11:14:28;;;;;;;3.88;1.25;;;;;;;;;;5113211;28;20047;-85
2023/05/31 11:17:03;;;;;;;3.35;1.20;;;;;;;;;;5113222;28;20054;-90
2023/05/31 11:19:32;;;;;;;2.65;1.42;;;;;;;;;;5113637;28;20056;-88
2023/05/31 11:22:09;;;;;;;4.85;1.20;;;;;;;;;;5113005;28;20457;-93
2023/05/31 11:24:38;;;;;;;3.42;1.30;;;;;;;;;;5113262;28;20058;-86
2023/05/31 11:27:12;;;;;;;4.78;1.25;;;;;;;;;;5113647;28;20128;-89
2023/05/31 11:29:48;;;;;;;2.65;1.60;;;;;;;;;;5113581;28;20440;-88
2023/05/31 11:32:16;;;;;;;2.38;1.35;;;;;;;;;;5112740;28;20055;-92
2023/05/31 11:35:00;;;;;;;3.65;0.95;;;;;;;;;;5113910;28;20051;-87
2023/05/31 11:37:28;;;;;;;1.92;1.02;;;;;;;;;;5112894;28;20177;-88
2023/05/31 11:39:56;;;;;;;4.32;1.20;;;;;;;;;;5112825;28;20048;-87
2023/05/31 11:42:23;;;;;;;4.85;1.17;;;;;;;;;;5112703;28;20080;-90
2023/05/31 11:44:51;;;;;;;3.90;1.50;;;;;;;;;;5113239;28;20449;-88
2023/05/31 11:47:25;;;;;;;2.30;1.20;;;;;;;;;;5112914;28;20052;-85
2023/05/31 11:49:52;;;;;;;5.72;1.42;;;;;;;;;;5112823;28;20558;-90
2023/05/31 11:52:20;;;;;;;3.97;1.20;;;;;;;;;;5112410;28;20048;-88
2023/05/31 11:54:48;;;;;;;4.60;1.92;;;;;;;;;;5114107;28;20107;-86
2023/05/31 11:57:16;;;;;;;4.40;1.25;;;;;;;;;;5113650;28;20131;-87
2023/05/31 11:59:44;;;;;;;8.68;1.10;;;;;;;;;;5112824;28;20040;-90
2023/05/31 12:02:12;;;;;;;3.03;1.30;;;;;;;;;;5117502;28;20054;-88
2023/05/31 12:04:43;;;;;;;11.15;1.80;;;;;;;;;;5120614;28;20475;-87
2023/05/31 12:07:11;;;;;;;2.85;1.33;;;;;;;;;;5114712;28;20051;-91
2023/05/31 12:09:39;;;;;;;7.88;1.90;;;;;;;;;;5117662;28;20104;-91
2023/05/31 12:12:06;;;;;;;13.63;1.80;;;;;;;;;;5116616;28;20047;-87
2023/05/31 12:14:34;;;;;;;13.18;2.08;;;;;;;;;;5117880;28;20100;-88
2023/05/31 12:17:05;;;;;;;10.88;2.15;;;;;;;;;;5116680;28;20464;-91
2023/05/31 12:19:33;;;;;;;8.75;1.85;;;;;;;;;;5117719;28;20468;-92
2023/05/31 12:22:02;;;;;;;14.15;2.63;;;;;;;;;;5116514;28;20431;-86
2023/05/31 12:24:30;;;;;;;9.10;2.22;;;;;;;;;;5117657;28;20055;-88
2023/05/31 12:26:57;;;;;;;6.22;1.80;;;;;;;;;;5116660;28;20047;-87
2023/05/31 12:29:28;;;;;;;6.88;1.50;;;;;;;;;;5116589;28;20634;-87
2023/05/31 12:32:04;;;;;;;6.57;1.95;;;;;;;;;;5118256;28;20104;-87
2023/05/31 12:34:33;;;;;;;7.53;1.63;;;;;;;;;;5117233;28;20131;-88
2023/05/31 12:37:07;;;;;;;3.65;1.45;;;;;;;;;;5116459;28;20058;-93
2023/05/31 12:39:34;;;;;;;;;;;;;;;;;;5117228;28;20044;-87
2023/05/31 12:42:02;;;;;;;7.35;1.35;;;;;;;;;;5116068;28;19920;-87
2023/05/31 12:44:30;;;;;;;3.33;1.63;;;;;;;;;;5116489;28;20048;-85
2023/05/31 12:47:01;;;;;;;7.40;1.90;;;;;;;;;;5116314;28;20077;-88
2023/05/31 12:49:30;;;;;;;7.57;1.85;;;;;;;;;;5117003;28;20078;-91
2023/05/31 12:51:58;;;;;;;4.20;1.33;;;;;;;;;;5120859;28;20044;-88
2023/05/31 12:54:26;;;;;;;3.47;1.67;;;;;;;;;;5115951;28;20064;-87
2023/05/31 12:56:54;;;;;;;5.22;1.25;;;;;;;;;;5115610;28;20075;-89
2023/05/31 12:59:21;;;;;;;3.00;1.38;;;;;;;;;;5115707;28;20457;-86
2023/05/31 13:01:49;;;;;;;5.03;1.42;;;;;;;;;;5115863;28;20059;-87
2023/05/31 13:04:16;;;;;;;5.22;1.48;;;;;;;;;;5115762;28;20427;-90
2023/05/31 13:06:44;;;;;;;4.93;1.80;;;;;;;;;;5116098;28;20067;-93
2023/05/31 13:09:12;;;;;;;7.05;1.75;;;;;;;;;;5115308;28;20044;-88
2023/05/31 13:11:40;;;;;;;6.13;1.52;;;;;;;;;;5115577;28;20480;-93
2023/05/31 13:14:08;;;;;;;2.80;1.38;;;;;;;;;;5115032;28;20048;-84
2023/05/31 13:16:36;;;;;;;6.15;1.50;;;;;;;;;;5114679;28;20048;-86
2023/05/31 13:19:06;;;;;;;6.43;1.63;;;;;;;;;;5124412;28;20099;-91
2023/05/31 13:21:35;;;;;;;20.98;2.55;;;;;;;;;;5123878;28;20051;-88
2023/05/31 13:24:03;;;;;;;10.68;2.50;;;;;;;;;;5115545;28;20047;-88
2023/05/31 13:26:31;;;;;;;4.00;1.33;;;;;;;;;;5115095;28;20077;-88
2023/05/31 13:28:59;;;;;;;4.13;1.75;;;;;;;;;;5115568;28;20253;-89
2023/05/31 13:31:28;;;;;;;5.47;1.50;;;;;;;;;;5114641;28;20097;-86
2023/05/31 13:33:55;;;;;;;22.75;3.85;;;;;;;;;;5115745;28;20444;-88
2023/05/31 13:36:26;;;;;;;5.35;1.30;;;;;;;;;;5113856;28;20075;-88
2023/05/31 13:38:53;;;;;;;23.63;3.13;;;;;;;;;;5115971;28;20060;-89
2023/05/31 13:41:21;;;;;;;9.13;2.45;;;;;;;;;;5114558;28;20040;-88
2023/05/31 13:43:49;;;;;;;42.80;4.78;;;;;;;;;;5115324;28;20056;-86
2023/05/31 13:46:18;;;;;;;5.82;1.25;;;;;;;;;;5115009;28;20040;-91
2023/05/31 13:48:46;;;;;;;4.97;1.50;;;;;;;;;;5115388;28;20048;-92
2023/05/31 13:51:15;;;;;;;3.10;1.40;;;;;;;;;;5114699;28;20453;-88
2023/05/31 13:53:42;;;;;;;4.30;1.35;;;;;;;;;;5114113;28;20214;-87
2023/05/31 13:56:10;;;;;;;2.33;1.48;;;;;;;;;;5114234;28;20047;-89
2023/05/31 13:58:38;;;;;;;5.45;1.70;;;;;;;;;;5114831;28;20047;-91
2023/05/31 14:01:09;;;;;;;2.03;1.48;;;;;;;;;;5114762;28;20047;-88
2023/05/31 14:03:39;;;;;;;7.20;1.30;;;;;;;;;;5114055;28;20080;-91
2023/05/31 14:06:07;;;;;;;2.13;1.30;;;;;;;;;;5114577;28;20058;-88
2023/05/31 14:08:35;;;;;;;16.35;2.22;;;;;;;;;;5115515;28;20134;-92
2023/05/31 14:11:03;;;;;;;3.78;1.40;;;;;;;;;;5114518;28;20384;-84
2023/05/31 14:13:31;;;;;;;4.50;1.67;;;;;;;;;;5113773;28;20051;-84
2023/05/31 14:15:59;;;;;;;3.70;1.45;;;;;;;;;;5113949;28;20048;-84
2023/05/31 14:18:26;;;;;;;3.05;1.30;;;;;;;;;;5113889;28;20047;-87
2023/05/31 14:20:53;;;;;;;3.30;1.10;;;;;;;;;;5113782;28;20442;-87
2023/05/31 14:23:21;;;;;;;3.75;1.50;;;;;;;;;;5113697;28;20051;-88
2023/05/31 14:25:48;;;;;;;4.35;1.52;;;;;;;;;;5114794;28;20047;-83
2023/05/31 14:28:15;;;;;;;5.00;1.58;;;;;;;;;;5113489;28;20126;-85
2023/05/31 14:30:43;;;;;;;4.65;1.85;;;;;;;;;;5114976;28;20055;-91
2023/05/31 14:33:10;;;;;;;7.30;1.40;;;;;;;;;;5114894;28;20067;-87
2023/05/31 14:35:38;;;;;;;8.43;1.48;;;;;;;;;;5120060;28;20048;-88
2023/05/31 14:38:06;;;;;;;3.95;1.30;;;;;;;;;;5127170;28;20487;-88
2023/05/31 14:40:48;;;;;;;4.35;1.40;;;;;;;;;;5114120;28;20043;-87
2023/05/31 14:43:15;;;;;;;6.53;1.52;;;;;;;;;;5113486;28;20059;-86
2023/05/31 14:45:43;;;;;;;7.50;2.10;;;;;;;;;;5113534;28;20116;-87
2023/05/31 14:48:10;;;;;;;5.43;1.73;;;;;;;;;;5113715;28;20135;-87
2023/05/31 14:50:40;;;;;;;7.50;1.65;;;;;;;;;;5113599;28;20122;-90
2023/05/31 14:53:11;;;;;;;3.83;1.30;;;;;;;;;;5113431;28;20047;-89
2023/05/31 14:55:38;;;;;;;3.35;1.63;;;;;;;;;;5113453;28;20097;-93
2023/05/31 14:58:06;;;;;;;5.25;1.63;;;;;;;;;;5113852;28;20074;-87
2023/05/31 15:00:33;;;;;;;5.18;1.63;;;;;;;;;;5113593;28;20101;-92
2023/05/31 15:03:00;;;;;;;6.75;2.05;;;;;;;;;;5114142;28;20142;-84
2023/05/31 15:05:28;;;;;;;3.75;1.20;;;;;;;;;;5113674;28;20048;-87
2023/05/31 15:07:55;;;;;;;4.65;1.70;;;;;;;;;;5113797;28;20112;-88
2023/05/31 15:10:25;;;;;;;3.60;1.58;;;;;;;;;;5113444;28;20052;-88
2023/05/31 15:12:53;;;;;;;2.90;1.40;;;;;;;;;;5113167;28;20058;-88
2023/05/31 15:15:20;;;;;;;3.80;1.42;;;;;;;;;;5113580;28;20059;-87
2023/05/31 15:17:48;;;;;;;5.05;1.48;;;;;;;;;;5113908;28;20052;-90